CDT,Max TemperatureF,Mean TemperatureF,Min TemperatureF,Max Dew PointF,MeanDew PointF,Min DewpointF,Max Humidity, Mean Humidity, Min Humidity, Max Sea Level PressureIn, Mean Sea Level PressureIn, Min Sea Level PressureIn, Max VisibilityMiles, Mean VisibilityMiles, Min VisibilityMiles, Max Wind SpeedMPH, Mean Wind SpeedMPH, Max Gust SpeedMPH,PrecipitationIn, CloudCover, Events, WindDirDegrees
2012-9-1,100,83,66,54,50,46,56,37,17,30.00,29.81,29.61,10,10,10,37,17,53,T,1,Rain-Thunderstorm,140
2012-9-2,87,68,49,58,51,38,68,44,19,29.89,29.79,29.67,10,10,10,29,7,39,T,1,Rain,293
2012-9-3,87,65,43,56,49,42,92,62,32,29.91,29.87,29.82,10,10,10,18,5,21,0.00,0,,71
2012-9-4,85,64,42,53,44,36,100,59,18,29.92,29.87,29.81,10,8,0,17,6,25,T,0,Fog,344
2012-9-5,79,63,47,46,41,38,77,50,23,30.03,29.96,29.90,10,10,9,21,9,31,0.00,1,,297
2012-9-6,75,60,44,48,45,40,83,59,35,30.10,29.97,29.91,10,10,8,20,6,23,T,2,Rain,34
2012-9-7,70,58,45,45,42,40,92,63,33,30.23,30.18,30.12,10,10,10,18,8,23,0.00,2,,310
2012-9-8,73,57,41,44,36,30,76,49,22,30.24,30.15,30.07,10,10,10,24,8,31,0.00,0,,340
2012-9-9,81,57,33,38,36,32,34,27,20,30.23,30.08,29.80,10,10,10,26,11,32,0.00,0,,141
2012-9-10,96,74,52,46,41,35,59,36,13,29.77,29.63,29.56,10,10,6,16,5,20,0.00,0,,113
2012-9-11,75,61,46,45,35,26,60,40,19,30.04,29.80,29.57,10,10,10,30,12,40,0.00,0,,327
2012-9-12,72,55,37,34,26,20,70,42,14,30.31,30.20,30.06,10,10,10,26,8,35,0.00,0,,298
2012-9-13,79,57,34,34,28,20,75,43,11,30.37,30.30,30.19,10,10,5,17,5,23,0.00,1,,287
2012-9-14,76,54,31,38,32,28,85,53,20,30.36,30.27,30.13,10,10,10,9,3,10,0.00,0,,127
2012-9-15,92,68,43,39,33,21,70,39,8,30.11,29.97,29.86,10,10,10,25,8,32,0.00,0,,358
2012-9-16,59,52,45,49,42,37,86,67,47,30.19,30.10,29.98,10,10,10,16,7,21,0.04,3,Rain,22
2012-9-17,62,48,34,44,35,25,93,60,26,30.20,30.16,30.12,10,10,7,20,8,28,T,2,Rain,328
2012-9-18,80,57,34,42,34,29,82,50,18,30.12,29.89,29.70,10,10,6,22,6,28,0.00,3,,263
2012-9-19,69,61,52,40,31,18,59,37,15,30.03,29.90,29.68,10,10,10,33,15,45,0.00,0,,316
2012-9-20,68,57,45,34,31,27,60,41,22,30.06,29.98,29.87,10,10,8,10,5,14,0.00,2,,285
2012-9-21,68,52,36,38,32,23,79,49,19,30.22,30.01,29.94,10,10,10,25,10,35,0.00,0,,322
2012-9-22,58,40,22,27,22,18,84,54,23,30.42,30.34,30.24,10,10,10,8,3,10,0.00,0,,46
2012-9-23,68,47,25,27,21,15,88,51,14,30.36,30.27,30.09,10,10,10,13,4,16,0.00,0,,109
2012-9-24,85,58,31,41,30,22,72,44,15,30.10,29.93,29.81,10,10,6,18,6,24,0.00,0,,343
2012-9-25,72,55,37,38,35,30,82,54,26,30.05,29.96,29.90,10,10,7,10,5,13,0.00,0,,77
2012-9-26,78,57,35,39,36,34,92,58,23,30.16,30.09,30.04,10,10,10,16,8,21,0.00,1,,121
2012-9-27,75,59,43,44,40,37,77,53,29,30.14,30.10,30.07,10,10,6,14,4,17,0.00,1,,109
2012-9-28,84,62,40,45,39,35,83,50,17,30.17,30.11,30.04,10,10,4,18,5,22,0.00,0,,150
2012-9-29,86,65,43,41,35,30,58,38,17,30.06,29.99,29.91,10,10,10,25,9,33,0.00,0,,138
2012-9-30,80,63,45,46,41,36,71,50,28,30.12,29.97,29.91,10,10,10,23,8,31,0.01,2,,312